createdAt,value
2019-05-06T00:01:53.951Z,15.28
2019-05-06T00:04:25.543Z,15.26
2019-05-06T00:06:56.959Z,15.25
2019-05-06T00:09:28.387Z,15.25
2019-05-06T00:11:59.871Z,15.28
2019-05-06T00:14:31.376Z,15.30
2019-05-06T00:17:03.867Z,15.26
2019-05-06T00:19:36.471Z,15.24
2019-05-06T00:22:07.825Z,15.19
2019-05-06T00:24:44.041Z,15.22
2019-05-06T00:27:17.273Z,15.14
2019-05-06T00:29:49.008Z,15.13
2019-05-06T00:32:20.307Z,15.03
2019-05-06T00:34:51.631Z,15.04
2019-05-06T00:37:24.132Z,15.07
2019-05-06T00:39:59.988Z,15.01
2019-05-06T00:42:34.726Z,15.01
2019-05-06T00:45:07.622Z,15.01
2019-05-06T00:47:39.028Z,15.05
2019-05-06T00:50:10.780Z,15.03
2019-05-06T00:52:44.586Z,15.00
2019-05-06T00:55:15.491Z,15.00
2019-05-06T00:57:46.811Z,15.06
2019-05-06T01:00:21.294Z,15.08
2019-05-06T01:02:54.295Z,14.99
2019-05-06T01:05:25.787Z,15.02
2019-05-06T01:07:57.236Z,15.03
2019-05-06T01:10:28.845Z,14.99
2019-05-06T01:13:04.091Z,14.97
2019-05-06T01:15:35.174Z,14.99
2019-05-06T01:18:06.621Z,14.97
2019-05-06T01:20:37.944Z,14.92
2019-05-06T01:23:10.845Z,14.97
2019-05-06T01:25:43.812Z,14.96
2019-05-06T01:28:15.569Z,14.95
2019-05-06T01:30:47.250Z,14.87
2019-05-06T01:33:20.269Z,14.89
2019-05-06T01:35:54.063Z,14.92
2019-05-06T01:38:29.239Z,14.83
2019-05-06T01:41:03.981Z,14.81
2019-05-06T01:43:37.308Z,14.76
2019-05-06T01:46:08.981Z,14.75
2019-05-06T01:48:49.676Z,14.73
2019-05-06T01:51:24.100Z,14.70
2019-05-06T01:53:55.184Z,14.67
2019-05-06T01:56:26.440Z,14.66
2019-05-06T01:58:57.771Z,14.60
2019-05-06T02:01:29.163Z,14.60
2019-05-06T02:04:00.877Z,14.55
2019-05-06T02:06:34.260Z,14.51
2019-05-06T02:09:09.763Z,14.54
2019-05-06T02:11:41.063Z,14.56
2019-05-06T02:14:13.981Z,14.48
2019-05-06T02:16:45.617Z,14.49
2019-05-06T02:19:18.485Z,14.45
2019-05-06T02:21:51.582Z,14.49
2019-05-06T02:24:27.620Z,14.49
2019-05-06T02:26:59.017Z,14.51
2019-05-06T02:29:35.037Z,14.50
2019-05-06T02:32:25.641Z,14.48
2019-05-06T02:34:54.894Z,14.43
2019-05-06T02:37:40.251Z,14.50
2019-05-06T02:40:24.713Z,14.53
2019-05-06T02:42:55.318Z,14.44
2019-05-06T02:45:27.006Z,14.50
2019-05-06T02:48:04.394Z,14.47
2019-05-06T02:50:46.330Z,14.47
2019-05-06T02:53:19.346Z,14.47
2019-05-06T02:55:53.147Z,14.46
2019-05-06T02:58:24.185Z,14.42
2019-05-06T03:00:56.671Z,14.41
2019-05-06T03:03:29.171Z,14.47
2019-05-06T03:06:03.543Z,14.42
2019-05-06T03:08:33.962Z,14.47
2019-05-06T03:11:05.508Z,14.44
2019-05-06T03:13:38.116Z,14.54
2019-05-06T03:16:09.504Z,14.50
2019-05-06T03:18:43.378Z,14.57
2019-05-06T03:21:15.535Z,14.62
2019-05-06T03:23:48.644Z,14.69
2019-05-06T03:26:20.116Z,14.68
2019-05-06T03:28:53.555Z,14.59
2019-05-06T03:31:26.459Z,14.64
2019-05-06T03:34:21.766Z,14.63
2019-05-06T03:36:34.692Z,14.65
2019-05-06T03:39:06.181Z,14.67
2019-05-06T03:41:38.697Z,14.69
2019-05-06T03:44:10.055Z,14.61
2019-05-06T03:46:53.973Z,14.66
2019-05-06T03:49:29.364Z,14.60
2019-05-06T03:52:02.779Z,14.57
2019-05-06T03:54:34.759Z,14.57
2019-05-06T03:57:06.232Z,14.67
2019-05-06T03:59:39.245Z,14.66
2019-05-06T04:02:13.173Z,14.69
2019-05-06T04:04:44.279Z,14.76
2019-05-06T04:07:15.686Z,14.76
2019-05-06T04:09:47.135Z,14.78
2019-05-06T04:12:19.812Z,14.83
2019-05-06T04:14:54.027Z,14.85
2019-05-06T04:17:33.008Z,14.79
2019-05-06T04:20:23.593Z,14.91
2019-05-06T04:23:05.992Z,14.89
2019-05-06T04:25:52.681Z,14.92
2019-05-06T04:28:34.170Z,14.84
2019-05-06T04:31:06.243Z,14.88
2019-05-06T04:33:37.892Z,14.86
2019-05-06T04:36:09.324Z,14.88
2019-05-06T04:38:43.387Z,14.82
2019-05-06T04:41:14.290Z,14.89
2019-05-06T04:43:45.898Z,14.92
2019-05-06T04:46:17.319Z,14.96
2019-05-06T04:48:48.555Z,15.01
2019-05-06T04:51:24.391Z,15.01
2019-05-06T04:53:54.503Z,15.09
2019-05-06T04:56:25.832Z,15.16
2019-05-06T04:58:57.437Z,15.12
2019-05-06T05:01:28.905Z,15.22
2019-05-06T05:04:03.272Z,15.30
2019-05-06T05:06:33.517Z,15.33
2019-05-06T05:09:06.395Z,15.38
2019-05-06T05:11:42.534Z,15.41
2019-05-06T05:14:15.772Z,15.50
2019-05-06T05:17:02.221Z,15.62
2019-05-06T05:19:34.117Z,15.53
2019-05-06T05:22:08.532Z,15.51
2019-05-06T05:24:40.023Z,15.57
2019-05-06T05:27:12.568Z,15.69
2019-05-06T05:29:44.248Z,15.79
2019-05-06T05:32:15.698Z,15.82
2019-05-06T05:34:49.343Z,15.94
2019-05-06T05:37:22.614Z,16.16
2019-05-06T05:39:53.839Z,16.27
2019-05-06T05:42:30.126Z,16.26
2019-05-06T05:45:02.656Z,16.41
2019-05-06T05:47:35.372Z,16.47
2019-05-06T05:50:13.977Z,16.57
2019-05-06T05:52:45.344Z,16.68
2019-05-06T05:55:16.805Z,16.84
2019-05-06T05:57:48.160Z,16.99
2019-05-06T06:00:22.482Z,17.03
2019-05-06T06:02:53.881Z,16.86
2019-05-06T06:05:25.288Z,16.84
2019-05-06T06:07:57.108Z,16.99
2019-05-06T06:10:42.470Z,17.13
2019-05-06T06:13:13.510Z,17.08
2019-05-06T06:15:52.559Z,17.10
2019-05-06T06:18:28.604Z,17.23
2019-05-06T06:21:17.751Z,17.31
2019-05-06T06:23:42.493Z,17.43
2019-05-06T06:26:13.938Z,17.46
2019-05-06T06:28:46.443Z,17.58
2019-05-06T06:31:19.919Z,17.72
2019-05-06T06:33:53.100Z,17.85
2019-05-06T06:36:26.249Z,18.10
2019-05-06T06:38:59.371Z,18.08
2019-05-06T06:41:32.289Z,17.96
2019-05-06T06:44:05.583Z,18.18
2019-05-06T06:46:37.103Z,18.39
2019-05-06T06:49:08.676Z,18.60
2019-05-06T06:51:42.535Z,18.68
2019-05-06T06:54:13.960Z,18.94
2019-05-06T06:56:47.103Z,19.03
2019-05-06T06:59:22.170Z,19.18
2019-05-06T07:02:12.121Z,19.21
2019-05-06T07:04:56.711Z,19.08
2019-05-06T07:07:41.346Z,19.13
2019-05-06T07:10:03.326Z,19.06
2019-05-06T07:12:34.801Z,19.10
2019-05-06T07:15:07.876Z,19.12
2019-05-06T07:17:41.860Z,19.20
2019-05-06T07:20:14.962Z,19.17
2019-05-06T07:22:48.432Z,19.30
2019-05-06T07:25:22.106Z,19.46
2019-05-06T07:27:53.226Z,19.66
2019-05-06T07:30:26.219Z,19.74
2019-05-06T07:33:00.436Z,19.79
2019-05-06T07:35:40.083Z,19.85
2019-05-06T07:38:03.988Z,19.84
2019-05-06T07:40:35.342Z,19.79
2019-05-06T07:43:27.829Z,19.94
2019-05-06T07:46:02.537Z,20.03
2019-05-06T07:48:35.413Z,20.16
2019-05-06T07:51:06.879Z,20.17
2019-05-06T07:53:38.498Z,20.21
2019-05-06T07:56:12.104Z,20.37
2019-05-06T07:58:43.593Z,20.45
2019-05-06T08:01:15.088Z,20.65
2019-05-06T08:03:46.490Z,20.67
2019-05-06T08:06:18.163Z,20.73
2019-05-06T08:08:49.684Z,20.87
2019-05-06T08:11:22.635Z,20.86
2019-05-06T08:13:54.270Z,20.97
2019-05-06T08:16:27.365Z,21.02
2019-05-06T08:18:59.949Z,21.13
2019-05-06T08:21:39.027Z,21.13
2019-05-06T08:24:12.050Z,21.30
2019-05-06T08:26:43.635Z,21.66
2019-05-06T08:29:16.140Z,21.72
2019-05-06T08:31:47.519Z,21.86
2019-05-06T08:34:19.350Z,21.81
2019-05-06T08:36:53.335Z,21.97
2019-05-06T08:39:24.872Z,22.19
2019-05-06T08:41:56.428Z,22.30
2019-05-06T08:44:27.845Z,22.41
2019-05-06T08:47:02.017Z,22.33
2019-05-06T08:49:34.815Z,22.39
2019-05-06T08:52:07.842Z,22.50
2019-05-06T08:54:43.717Z,22.53
2019-05-06T08:57:16.658Z,22.52
2019-05-06T08:59:48.593Z,22.25
2019-05-06T09:02:22.867Z,22.22
2019-05-06T09:04:54.281Z,22.27
2019-05-06T09:07:25.602Z,22.21
2019-05-06T09:09:56.971Z,22.16
2019-05-06T09:12:28.969Z,22.20
2019-05-06T09:15:03.267Z,22.39
2019-05-06T09:17:33.729Z,22.62
2019-05-06T09:20:06.360Z,22.60
2019-05-06T09:22:37.686Z,22.61
2019-05-06T09:25:09.314Z,22.72
2019-05-06T09:27:48.219Z,22.77
2019-05-06T09:30:23.316Z,22.74
2019-05-06T09:32:54.727Z,22.70
2019-05-06T09:35:26.244Z,22.74
2019-05-06T09:37:57.759Z,22.98
2019-05-06T09:40:29.121Z,23.15
2019-05-06T09:43:04.676Z,22.93
2019-05-06T09:45:34.414Z,22.90
2019-05-06T09:48:13.191Z,23.07
2019-05-06T09:50:46.845Z,23.27
2019-05-06T09:53:19.995Z,23.36
2019-05-06T09:56:05.478Z,23.56
2019-05-06T09:58:38.533Z,23.59
2019-05-06T10:01:10.186Z,23.28
2019-05-06T10:03:42.956Z,23.11
2019-05-06T10:06:14.468Z,23.35
2019-05-06T10:08:45.887Z,23.50
2019-05-06T10:11:17.484Z,23.47
2019-05-06T10:13:49.020Z,23.57
2019-05-06T10:16:20.458Z,23.81
2019-05-06T10:18:52.496Z,23.79
2019-05-06T10:21:24.902Z,24.16
2019-05-06T10:23:56.455Z,24.34
2019-05-06T10:26:29.645Z,24.50
2019-05-06T10:29:08.737Z,24.34
2019-05-06T10:31:48.117Z,24.28
2019-05-06T10:34:19.543Z,24.30
2019-05-06T10:37:17.969Z,24.07
2019-05-06T10:39:49.147Z,24.18
2019-05-06T10:42:23.525Z,24.20
2019-05-06T10:45:14.840Z,24.12
2019-05-06T10:47:46.416Z,23.77
2019-05-06T10:50:17.998Z,23.84
2019-05-06T10:53:07.322Z,23.86
2019-05-06T10:55:42.735Z,23.77
2019-05-06T10:58:15.181Z,23.89
2019-05-06T11:00:48.815Z,23.64
2019-05-06T11:03:22.652Z,23.53
2019-05-06T11:05:55.504Z,23.59
2019-05-06T11:08:27.032Z,23.56
2019-05-06T11:11:14.478Z,23.89
2019-05-06T11:13:32.268Z,23.82
2019-05-06T11:16:04.093Z,23.67
2019-05-06T11:18:35.494Z,23.79
2019-05-06T11:21:06.847Z,23.61
2019-05-06T11:23:38.307Z,23.74
2019-05-06T11:26:13.000Z,23.78
2019-05-06T11:28:54.393Z,23.76
2019-05-06T11:31:32.961Z,24.01
2019-05-06T11:34:23.109Z,23.91
2019-05-06T11:36:56.305Z,23.91
2019-05-06T11:39:28.694Z,24.16
2019-05-06T11:42:23.470Z,24.15
2019-05-06T11:44:36.413Z,24.19
2019-05-06T11:47:07.814Z,24.22
2019-05-06T11:49:39.400Z,24.42
2019-05-06T11:52:13.026Z,24.51
2019-05-06T11:54:44.041Z,24.55
2019-05-06T11:57:15.534Z,24.53
2019-05-06T11:59:47.335Z,24.52
2019-05-06T12:02:26.679Z,24.68
2019-05-06T12:04:58.214Z,24.45
2019-05-06T12:07:30.244Z,24.76
2019-05-06T12:10:02.553Z,24.83
2019-05-06T12:12:34.123Z,24.45
2019-05-06T12:15:07.418Z,24.62
2019-05-06T12:17:38.873Z,24.68
2019-05-06T12:20:12.932Z,24.53
2019-05-06T12:22:44.016Z,24.67
2019-05-06T12:25:15.784Z,24.61
2019-05-06T12:27:47.407Z,24.32
2019-05-06T12:30:23.022Z,24.38
2019-05-06T12:32:56.246Z,24.28
2019-05-06T12:35:32.127Z,24.53
2019-05-06T12:38:11.373Z,24.45
2019-05-06T12:40:39.631Z,24.10
2019-05-06T12:43:25.079Z,24.15
2019-05-06T12:46:02.803Z,24.11
2019-05-06T12:48:44.041Z,23.87
2019-05-06T12:51:15.183Z,24.32
2019-05-06T12:53:46.612Z,24.64
2019-05-06T12:56:19.052Z,24.92
2019-05-06T12:58:52.588Z,24.62
2019-05-06T13:01:24.197Z,24.63
2019-05-06T13:03:55.729Z,24.44
2019-05-06T13:06:27.189Z,24.41
2019-05-06T13:09:04.113Z,24.31
2019-05-06T13:11:32.555Z,24.05
2019-05-06T13:14:04.342Z,23.87
2019-05-06T13:16:37.013Z,23.70
2019-05-06T13:19:08.250Z,23.74
2019-05-06T13:21:42.025Z,23.73
2019-05-06T13:24:13.736Z,23.59
2019-05-06T13:26:45.420Z,23.55
2019-05-06T13:29:18.394Z,23.65
2019-05-06T13:31:52.792Z,23.57
2019-05-06T13:34:23.677Z,23.41
2019-05-06T13:36:56.431Z,23.43
2019-05-06T13:39:28.001Z,23.27
2019-05-06T13:41:59.749Z,23.31
2019-05-06T13:44:32.034Z,23.27
2019-05-06T13:47:12.139Z,23.23
2019-05-06T13:49:45.264Z,23.24
2019-05-06T13:52:17.377Z,23.13
2019-05-06T13:54:48.824Z,23.08
2019-05-06T13:57:21.277Z,23.03
2019-05-06T13:59:53.448Z,23.10
2019-05-06T14:02:26.663Z,23.14
2019-05-06T14:04:58.146Z,23.18
2019-05-06T14:07:29.938Z,23.04
2019-05-06T14:10:02.650Z,23.07
2019-05-06T14:12:34.531Z,23.09
2019-05-06T14:15:07.845Z,22.98
2019-05-06T14:17:39.716Z,23.01
2019-05-06T14:20:12.646Z,23.02
2019-05-06T14:22:44.367Z,22.98
2019-05-06T14:25:23.217Z,22.93
2019-05-06T14:27:59.609Z,22.86
2019-05-06T14:30:42.902Z,22.88
2019-05-06T14:33:16.482Z,22.92
2019-05-06T14:35:48.071Z,22.77
2019-05-06T14:38:24.323Z,22.59
2019-05-06T14:41:07.135Z,22.60
2019-05-06T14:43:34.694Z,22.67
2019-05-06T14:46:06.164Z,22.83
2019-05-06T14:48:37.954Z,23.14
2019-05-06T14:51:09.571Z,22.92
2019-05-06T14:53:43.396Z,23.00
2019-05-06T14:56:18.893Z,23.10
2019-05-06T14:59:07.092Z,23.29
2019-05-06T15:01:39.260Z,23.58
2019-05-06T15:04:12.482Z,23.95
2019-05-06T15:06:44.250Z,24.46
2019-05-06T15:09:15.937Z,24.74
2019-05-06T15:11:48.983Z,25.08
2019-05-06T15:14:22.702Z,24.80
2019-05-06T15:16:54.987Z,25.01
2019-05-06T15:19:26.572Z,24.59
2019-05-06T15:22:02.388Z,23.68
2019-05-06T15:24:37.354Z,23.61
2019-05-06T15:27:12.170Z,23.60
2019-05-06T15:29:53.165Z,23.50
2019-05-06T15:32:25.716Z,23.35
2019-05-06T15:38:43.966Z,23.07
2019-05-06T15:41:17.136Z,23.07
2019-05-06T15:43:48.581Z,22.97
2019-05-06T15:46:22.783Z,22.80
2019-05-06T15:48:54.388Z,22.74
2019-05-06T15:51:34.937Z,22.71
2019-05-06T15:54:06.743Z,22.63
2019-05-06T15:56:38.179Z,22.50
2019-05-06T15:59:11.977Z,22.54
2019-05-06T16:01:43.215Z,22.53
2019-05-06T16:04:14.799Z,22.53
2019-05-06T16:06:46.263Z,22.49
2019-05-06T16:09:17.734Z,22.36
2019-05-06T16:11:49.264Z,22.23
2019-05-06T16:14:22.907Z,22.22
2019-05-06T16:16:55.292Z,22.15
2019-05-06T16:19:28.760Z,22.08
2019-05-06T16:22:00.275Z,22.01
2019-05-06T16:24:36.432Z,21.97
2019-05-06T16:27:07.904Z,21.88
2019-05-06T16:29:39.462Z,21.72
2019-05-06T16:32:11.049Z,21.70
2019-05-06T16:34:43.432Z,21.63
2019-05-06T16:37:14.912Z,21.53
2019-05-06T16:39:46.353Z,21.48
2019-05-06T16:42:17.876Z,21.31
2019-05-06T16:44:49.409Z,21.25
2019-05-06T16:47:38.463Z,21.22
2019-05-06T16:50:15.967Z,21.14
2019-05-06T16:52:47.515Z,21.05
2019-05-06T16:55:24.285Z,20.93
2019-05-06T16:57:58.075Z,20.90
2019-05-06T17:00:32.174Z,20.81
2019-05-06T17:03:14.643Z,20.71
2019-05-06T17:06:03.283Z,20.70
2019-05-06T17:08:36.524Z,20.66
2019-05-06T17:11:08.030Z,20.59
2019-05-06T17:13:39.753Z,20.57
2019-05-06T17:16:13.683Z,20.58
2019-05-06T17:18:44.246Z,20.52
2019-05-06T17:21:15.922Z,20.49
2019-05-06T17:23:47.502Z,20.45
2019-05-06T17:26:18.953Z,20.36
2019-05-06T17:28:56.614Z,20.35
2019-05-06T17:31:32.687Z,20.31
2019-05-06T17:34:05.963Z,20.31
2019-05-06T17:36:38.933Z,20.25
2019-05-06T17:39:11.354Z,20.27
2019-05-06T17:41:48.531Z,20.26
2019-05-06T17:44:16.812Z,20.21
2019-05-06T17:46:49.699Z,20.13
2019-05-06T17:49:25.581Z,20.09
2019-05-06T17:52:04.709Z,20.06
2019-05-06T17:54:36.201Z,20.00
2019-05-06T17:57:07.876Z,19.94
2019-05-06T17:59:42.238Z,19.92
2019-05-06T18:02:19.448Z,19.90
2019-05-06T18:04:53.073Z,19.82
2019-05-06T18:07:24.145Z,19.80
2019-05-06T18:09:55.674Z,19.75
2019-05-06T18:12:27.001Z,19.77
2019-05-06T18:14:58.509Z,19.68
2019-05-06T18:17:30.265Z,19.59
2019-05-06T18:20:03.045Z,19.54
2019-05-06T18:22:34.445Z,19.46
2019-05-06T18:25:06.358Z,19.44
2019-05-06T18:27:38.025Z,19.40
2019-05-06T18:30:21.931Z,19.36
2019-05-06T18:32:43.855Z,19.31
2019-05-06T18:35:15.274Z,19.31
2019-05-06T18:37:46.776Z,19.34
2019-05-06T18:40:18.287Z,19.28
2019-05-06T18:42:52.507Z,19.26
2019-05-06T18:45:25.739Z,19.21
2019-05-06T18:47:57.207Z,19.22
2019-05-06T18:50:28.654Z,19.12
2019-05-06T18:53:02.298Z,19.12
2019-05-06T18:55:34.059Z,19.13
2019-05-06T18:58:06.461Z,19.09
2019-05-06T19:00:37.788Z,19.05
2019-05-06T19:03:09.288Z,19.03
2019-05-06T19:05:42.874Z,19.00
2019-05-06T19:08:21.883Z,18.96
2019-05-06T19:10:53.368Z,19.00
2019-05-06T19:13:24.810Z,18.92
2019-05-06T19:15:56.448Z,18.85
2019-05-06T19:18:27.854Z,18.85
2019-05-06T19:20:59.293Z,18.84
2019-05-06T19:23:32.120Z,18.79
2019-05-06T19:26:04.077Z,18.76
2019-05-06T19:28:35.535Z,18.69
2019-05-06T19:31:08.183Z,18.67
2019-05-06T19:33:39.855Z,18.64
2019-05-06T19:36:12.591Z,18.58
2019-05-06T19:38:44.335Z,18.59
2019-05-06T19:41:15.864Z,18.58
2019-05-06T19:43:47.269Z,18.57
2019-05-06T19:46:18.684Z,18.57
2019-05-06T19:48:52.270Z,18.61
2019-05-06T19:51:23.516Z,18.60
2019-05-06T19:53:55.090Z,18.62
2019-05-06T19:56:26.591Z,18.66
2019-05-06T19:58:58.226Z,18.67
2019-05-06T20:01:32.199Z,18.62
2019-05-06T20:04:03.221Z,18.57
2019-05-06T20:06:48.885Z,18.49
2019-05-06T20:09:23.124Z,18.48
2019-05-06T20:12:02.842Z,18.51
2019-05-06T20:14:34.309Z,18.45
2019-05-06T20:17:06.014Z,18.40
2019-05-06T20:19:37.472Z,18.38
2019-05-06T20:22:08.991Z,18.31
2019-05-06T20:24:42.476Z,18.24
2019-05-06T20:27:13.595Z,18.23
2019-05-06T20:29:45.189Z,18.24
2019-05-06T20:32:16.781Z,18.24
2019-05-06T20:34:50.025Z,18.23
2019-05-06T20:37:22.313Z,18.28
2019-05-06T20:39:53.641Z,18.24
2019-05-06T20:42:26.122Z,18.22
2019-05-06T20:44:57.464Z,18.24
2019-05-06T20:47:28.834Z,18.31
2019-05-06T20:50:02.233Z,18.33
2019-05-06T20:52:33.312Z,18.28
2019-05-06T20:55:12.451Z,18.28
2019-05-06T20:57:42.182Z,18.32
2019-05-06T21:00:15.773Z,18.29
2019-05-06T21:02:47.376Z,18.30
2019-05-06T21:05:18.753Z,18.24
2019-05-06T21:07:52.410Z,18.23
2019-05-06T21:10:23.411Z,18.24
2019-05-06T21:12:55.235Z,18.24
2019-05-06T21:15:27.682Z,18.25
2019-05-06T21:18:03.605Z,18.21
2019-05-06T21:20:34.133Z,18.12
2019-05-06T21:23:05.572Z,18.14
2019-05-06T21:25:36.969Z,18.13
2019-05-06T21:28:08.529Z,18.08
2019-05-06T21:30:40.039Z,18.11
2019-05-06T21:33:12.432Z,18.06
2019-05-06T21:35:44.136Z,18.05
2019-05-06T21:38:15.493Z,18.06
2019-05-06T21:40:46.898Z,18.09
2019-05-06T21:43:18.425Z,18.03
2019-05-06T21:45:49.843Z,18.06
2019-05-06T21:48:22.216Z,18.07
2019-05-06T21:50:53.800Z,18.09
2019-05-06T21:53:25.281Z,18.02
2019-05-06T21:55:56.674Z,17.98
2019-05-06T21:58:27.903Z,17.93
2019-05-06T22:01:02.341Z,17.88
2019-05-06T22:03:35.601Z,17.86
2019-05-06T22:06:07.052Z,17.80
2019-05-06T22:08:38.421Z,17.72
2019-05-06T22:11:09.765Z,17.76
2019-05-06T22:13:42.573Z,17.71
2019-05-06T22:16:14.162Z,17.70
2019-05-06T22:18:45.756Z,17.64
2019-05-06T22:21:18.722Z,17.66
2019-05-06T22:23:54.483Z,17.68
2019-05-06T22:26:27.077Z,17.69
2019-05-06T22:28:58.430Z,17.61
2019-05-06T22:31:29.799Z,17.53
2019-05-06T22:34:01.114Z,17.52
2019-05-06T22:36:32.534Z,17.53
2019-05-06T22:39:05.522Z,17.47
2019-05-06T22:41:38.293Z,17.48
2019-05-06T22:44:13.662Z,17.45
2019-05-06T22:46:43.801Z,17.44
2019-05-06T22:49:15.133Z,17.43
2019-05-06T22:51:46.598Z,17.40
2019-05-06T22:54:17.909Z,17.43
2019-05-06T22:56:49.292Z,17.36
2019-05-06T22:59:24.459Z,17.37
2019-05-06T23:01:58.218Z,17.35
2019-05-06T23:04:32.440Z,17.42
2019-05-06T23:07:04.820Z,17.29
2019-05-06T23:09:36.406Z,17.31
2019-05-06T23:12:07.802Z,17.29
2019-05-06T23:14:39.253Z,17.28
2019-05-06T23:17:12.700Z,17.22
2019-05-06T23:19:43.613Z,17.25
2019-05-06T23:22:14.889Z,17.24
2019-05-06T23:24:46.201Z,17.20
2019-05-06T23:27:17.803Z,17.16
2019-05-06T23:29:49.231Z,17.18
2019-05-06T23:32:22.741Z,17.17
2019-05-06T23:34:53.831Z,17.10
2019-05-06T23:37:23.930Z,17.13
2019-05-06T23:40:33.447Z,17.18
2019-05-06T23:43:42.673Z,17.11
2019-05-06T23:46:52.840Z,17.10
2019-05-06T23:50:00.277Z,17.18
2019-05-06T23:53:07.962Z,17.17
2019-05-06T23:56:15.787Z,17.06
2019-05-06T23:58:47.117Z,17.12
